createdAt,value
2022-11-30T00:00:26.992Z,50.866787
2022-11-30T00:01:27.007Z,50.866951
2022-11-30T00:02:27.030Z,50.867203
2022-11-30T00:03:27.081Z,50.867462
2022-11-30T00:04:27.947Z,50.867699
2022-11-30T00:05:26.960Z,50.867638
2022-11-30T00:06:26.949Z,50.867542
2022-11-30T00:07:26.973Z,50.867130
2022-11-30T00:08:26.929Z,50.866695
2022-11-30T00:09:27.547Z,50.866470
2022-11-30T00:10:26.910Z,50.866478
2022-11-30T00:11:26.922Z,50.866512
2022-11-30T00:12:26.927Z,50.866631
2022-11-30T00:13:26.887Z,50.866520
2022-11-30T00:14:26.889Z,50.866631
2022-11-30T00:15:26.876Z,50.866928
2022-11-30T00:16:26.931Z,50.866783
2022-11-30T00:17:26.858Z,50.866978
2022-11-30T00:18:26.886Z,50.867138
2022-11-30T00:19:26.843Z,50.867153
2022-11-30T00:20:26.834Z,50.867004
2022-11-30T00:21:26.861Z,50.867046
2022-11-30T00:22:26.821Z,50.866920
2022-11-30T00:23:26.799Z,50.866894
2022-11-30T00:24:26.804Z,50.866905
2022-11-30T00:25:26.815Z,50.866859
2022-11-30T00:26:26.790Z,50.866890
2022-11-30T00:40:29.624Z,50.866463
2022-11-30T00:41:27.744Z,50.866638
2022-11-30T00:42:27.762Z,50.866875
2022-11-30T00:43:27.738Z,50.866970
2022-11-30T00:44:27.720Z,50.866898
2022-11-30T00:45:27.716Z,50.866936
2022-11-30T00:46:27.746Z,50.867176
2022-11-30T00:47:27.701Z,50.866959
2022-11-30T00:48:27.696Z,50.866764
2022-11-30T00:49:27.687Z,50.866760
2022-11-30T00:50:27.680Z,50.866764
2022-11-30T00:51:27.673Z,50.866833
2022-11-30T00:52:27.666Z,50.866737
2022-11-30T00:53:27.669Z,50.866806
2022-11-30T00:58:35.560Z,50.866707
2022-11-30T00:59:35.550Z,50.866722
2022-11-30T01:00:35.627Z,50.866764
2022-11-30T01:01:35.596Z,50.866749
2022-11-30T01:02:35.696Z,50.866802
2022-11-30T01:03:35.520Z,50.866863
2022-11-30T01:04:35.599Z,50.866962
2022-11-30T01:05:35.559Z,50.866909
2022-11-30T01:06:35.483Z,50.866890
2022-11-30T01:07:36.536Z,50.866943
2022-11-30T01:08:35.477Z,50.866726
2022-11-30T01:09:35.490Z,50.866817
2022-11-30T01:10:35.477Z,50.866917
2022-11-30T01:11:35.466Z,50.866707
2022-11-30T01:12:35.445Z,50.866657
2022-11-30T01:13:35.450Z,50.866665
2022-11-30T01:14:35.433Z,50.866634
2022-11-30T01:15:35.444Z,50.866592
2022-11-30T01:16:35.413Z,50.866592
2022-11-30T01:17:35.406Z,50.866592
2022-11-30T01:18:35.395Z,50.866592
2022-11-30T01:19:35.387Z,50.866592
2022-11-30T01:20:36.312Z,50.866592
2022-11-30T01:21:35.379Z,50.866592
2022-11-30T01:22:35.366Z,50.866592
2022-11-30T01:23:35.355Z,50.866592
2022-11-30T01:24:37.350Z,50.866592
2022-11-30T01:25:35.344Z,50.866592
2022-11-30T01:26:35.340Z,50.866592
2022-11-30T01:27:35.323Z,50.866592
2022-11-30T01:28:35.935Z,50.866592
2022-11-30T01:29:35.312Z,50.866592
2022-11-30T01:30:35.379Z,50.866592
2022-11-30T01:31:35.301Z,50.866592
2022-11-30T01:32:35.280Z,50.866592
2022-11-30T01:33:35.288Z,50.866592
2022-11-30T01:34:35.268Z,50.866592
2022-11-30T01:35:35.279Z,50.866814
2022-11-30T01:36:35.262Z,50.866699
2022-11-30T01:37:35.253Z,50.866901
2022-11-30T01:38:35.235Z,50.866779
2022-11-30T01:39:35.251Z,50.866833
2022-11-30T01:40:35.249Z,50.866768
2022-11-30T01:41:35.943Z,50.866764
2022-11-30T01:42:35.205Z,50.866730
2022-11-30T01:43:35.192Z,50.866695
2022-11-30T01:44:35.193Z,50.866714
2022-11-30T01:45:35.816Z,50.866734
2022-11-30T01:46:35.315Z,50.866745
2022-11-30T01:47:35.164Z,50.866680
2022-11-30T01:48:35.147Z,50.866684
2022-11-30T01:49:35.172Z,50.866741
2022-11-30T01:50:35.138Z,50.866699
2022-11-30T01:51:35.127Z,50.866734
2022-11-30T01:52:35.124Z,50.866714
2022-11-30T01:58:43.047Z,50.866562
2022-11-30T01:59:43.039Z,50.866611
2022-11-30T02:00:43.047Z,50.866589
2022-11-30T02:01:43.514Z,50.866669
2022-11-30T02:02:43.036Z,50.866627
2022-11-30T02:03:43.018Z,50.866692
2022-11-30T02:04:42.998Z,50.866646
2022-11-30T02:05:43.087Z,50.866570
2022-11-30T02:06:42.997Z,50.866600
2022-11-30T02:07:43.142Z,50.866600
2022-11-30T02:08:43.056Z,50.866470
2022-11-30T02:09:42.954Z,50.866619
2022-11-30T02:10:42.953Z,50.866558
2022-11-30T02:11:42.936Z,50.866611
2022-11-30T02:12:43.924Z,50.866714
2022-11-30T02:13:42.923Z,50.866791
2022-11-30T02:14:43.438Z,50.866779
2022-11-30T02:15:42.966Z,50.866817
2022-11-30T02:16:42.902Z,50.866722
2022-11-30T02:17:42.939Z,50.866772
2022-11-30T02:18:42.882Z,50.866753
2022-11-30T02:19:43.853Z,50.866734
2022-11-30T02:20:42.868Z,50.866753
2022-11-30T02:21:42.854Z,50.866734
2022-11-30T02:22:43.857Z,50.866753
2022-11-30T02:23:42.859Z,50.866791
2022-11-30T02:24:42.837Z,50.866722
2022-11-30T02:25:42.828Z,50.866898
2022-11-30T02:26:42.868Z,50.866737
2022-11-30T02:27:42.821Z,50.866753
2022-11-30T02:28:42.803Z,50.866749
2022-11-30T02:29:42.791Z,50.866787
2022-11-30T02:30:42.834Z,50.866726
2022-11-30T02:31:42.768Z,50.866741
2022-11-30T02:32:42.769Z,50.866760
2022-11-30T02:33:42.751Z,50.866692
2022-11-30T02:34:42.749Z,50.866676
2022-11-30T02:35:42.753Z,50.866680
2022-11-30T02:36:42.728Z,50.866707
2022-11-30T02:37:42.720Z,50.866619
2022-11-30T02:38:42.749Z,50.866642
2022-11-30T02:39:43.355Z,50.866623
2022-11-30T02:40:42.708Z,50.866634
2022-11-30T02:41:42.692Z,50.866661
2022-11-30T02:42:42.682Z,50.866650
2022-11-30T02:43:42.723Z,50.866680
2022-11-30T02:44:42.686Z,50.866688
2022-11-30T02:45:42.665Z,50.866707
2022-11-30T02:46:42.716Z,50.866737
2022-11-30T02:47:42.638Z,50.866749
2022-11-30T02:48:42.632Z,50.866776
2022-11-30T02:49:42.633Z,50.866745
2022-11-30T02:50:42.620Z,50.866791
2022-11-30T02:51:42.622Z,50.866753
2022-11-30T02:52:42.603Z,50.866772
2022-11-30T02:53:42.599Z,50.866795
2022-11-30T02:54:42.609Z,50.866787
2022-11-30T02:55:42.580Z,50.866783
2022-11-30T02:56:42.608Z,50.866764
2022-11-30T02:57:42.564Z,50.866753
2022-11-30T02:58:42.550Z,50.866760
2022-11-30T02:59:42.563Z,50.866707
2022-11-30T03:00:42.535Z,50.866695
2022-11-30T03:01:43.467Z,50.866714
2022-11-30T03:02:42.585Z,50.866760
2022-11-30T03:03:42.523Z,50.866837
2022-11-30T03:04:42.521Z,50.866810
2022-11-30T03:05:42.504Z,50.866810
2022-11-30T03:06:42.489Z,50.866798
2022-11-30T03:07:42.505Z,50.866810
2022-11-30T03:08:42.471Z,50.866779
2022-11-30T03:09:42.467Z,50.866734
2022-11-30T03:10:42.950Z,50.866951
2022-11-30T03:11:42.456Z,50.866909
2022-11-30T03:12:42.442Z,50.866734
2022-11-30T03:13:42.433Z,50.866867
2022-11-30T03:14:42.423Z,50.866795
2022-11-30T03:15:42.452Z,50.866745
2022-11-30T03:16:43.941Z,50.866882
2022-11-30T03:17:42.437Z,50.866787
2022-11-30T03:18:42.388Z,50.866596
2022-11-30T03:19:42.383Z,50.866596
2022-11-30T03:20:42.389Z,50.866604
2022-11-30T03:21:42.379Z,50.866467
2022-11-30T03:22:42.397Z,50.866463
2022-11-30T03:23:42.356Z,50.866615
2022-11-30T03:24:44.142Z,50.866592
2022-11-30T03:25:42.353Z,50.866699
2022-11-30T03:26:42.938Z,50.866867
2022-11-30T03:27:42.328Z,50.866966
2022-11-30T03:28:42.331Z,50.866959
2022-11-30T03:29:42.304Z,50.866932
2022-11-30T03:30:42.422Z,50.866890
2022-11-30T03:31:42.295Z,50.866875
2022-11-30T03:32:42.304Z,50.866886
2022-11-30T03:33:42.277Z,50.866863
2022-11-30T03:34:42.262Z,50.866909
2022-11-30T03:35:42.266Z,50.866917
2022-11-30T03:36:42.257Z,50.866909
2022-11-30T03:37:43.968Z,50.866718
2022-11-30T03:38:42.240Z,50.866749
2022-11-30T03:39:42.228Z,50.866867
2022-11-30T03:40:42.217Z,50.866817
2022-11-30T03:41:42.214Z,50.866833
2022-11-30T03:42:42.223Z,50.866940
2022-11-30T03:43:42.200Z,50.866894
2022-11-30T03:44:44.172Z,50.866837
2022-11-30T03:45:42.194Z,50.866867
2022-11-30T03:46:42.500Z,50.866642
2022-11-30T03:47:42.176Z,50.866676
2022-11-30T03:48:42.152Z,50.866722
2022-11-30T03:49:42.142Z,50.866810
2022-11-30T03:50:42.139Z,50.866863
2022-11-30T03:51:42.122Z,50.866879
2022-11-30T03:52:42.127Z,50.866779
2022-11-30T03:53:42.107Z,50.866821
2022-11-30T03:54:42.102Z,50.866928
2022-11-30T03:55:42.102Z,50.866749
2022-11-30T03:56:42.084Z,50.866859
2022-11-30T03:57:42.095Z,50.867027
2022-11-30T03:58:42.087Z,50.867039
2022-11-30T03:59:42.066Z,50.866917
2022-11-30T04:00:42.074Z,50.866879
2022-11-30T04:01:42.081Z,50.867138
2022-11-30T04:02:44.813Z,50.866856
2022-11-30T04:03:43.031Z,50.866741
2022-11-30T04:04:42.020Z,50.866959
2022-11-30T04:05:42.029Z,50.866978
2022-11-30T04:06:42.003Z,50.866848
2022-11-30T04:07:42.062Z,50.866798
2022-11-30T04:08:42.016Z,50.866673
2022-11-30T04:09:42.005Z,50.866734
2022-11-30T04:10:42.036Z,50.866772
2022-11-30T04:11:41.967Z,50.866817
2022-11-30T04:12:41.980Z,50.866795
2022-11-30T04:13:41.948Z,50.866829
2022-11-30T04:14:41.941Z,50.866821
2022-11-30T04:15:42.006Z,50.866829
2022-11-30T04:16:41.946Z,50.866924
2022-11-30T04:17:41.925Z,50.866837
2022-11-30T04:18:41.917Z,50.866802
2022-11-30T04:19:42.451Z,50.866852
2022-11-30T04:20:41.891Z,50.866886
2022-11-30T04:25:30.834Z,50.866867
2022-11-30T04:26:30.836Z,50.866783
2022-11-30T04:27:30.828Z,50.866646
2022-11-30T04:28:30.839Z,50.866665
2022-11-30T04:29:30.802Z,50.866695
2022-11-30T04:30:30.798Z,50.866776
2022-11-30T04:31:30.810Z,50.866810
2022-11-30T04:32:30.801Z,50.866772
2022-11-30T04:33:30.815Z,50.866726
2022-11-30T04:34:30.768Z,50.866676
2022-11-30T04:35:30.800Z,50.866768
2022-11-30T04:36:30.743Z,50.866718
2022-11-30T04:37:30.770Z,50.866776
2022-11-30T04:38:30.768Z,50.866699
2022-11-30T04:39:30.742Z,50.866676
2022-11-30T04:40:30.729Z,50.866734
2022-11-30T04:41:30.709Z,50.866722
2022-11-30T04:42:30.740Z,50.866837
2022-11-30T04:43:30.689Z,50.866909
2022-11-30T04:44:30.706Z,50.866730
2022-11-30T04:45:35.168Z,50.866745
2022-11-30T04:46:31.709Z,50.866894
2022-11-30T04:47:30.657Z,50.866756
2022-11-30T04:48:30.787Z,50.866798
2022-11-30T04:49:30.652Z,50.866634
2022-11-30T04:50:30.631Z,50.866760
2022-11-30T04:51:30.623Z,50.866756
2022-11-30T04:52:30.611Z,50.866741
2022-11-30T04:53:30.615Z,50.866875
2022-11-30T04:54:30.614Z,50.866753
2022-11-30T04:55:30.593Z,50.866570
2022-11-30T04:56:30.590Z,50.866669
2022-11-30T04:57:30.573Z,50.866783
2022-11-30T04:58:30.576Z,50.866680
2022-11-30T04:59:30.558Z,50.866631
2022-11-30T05:00:30.555Z,50.866722
2022-11-30T05:01:30.636Z,50.866646
2022-11-30T05:02:30.531Z,50.866695
2022-11-30T05:03:30.527Z,50.866756
2022-11-30T05:04:30.582Z,50.866726
2022-11-30T05:05:30.515Z,50.866718
2022-11-30T05:06:30.520Z,50.866894
2022-11-30T05:07:30.522Z,50.866776
2022-11-30T05:08:31.134Z,50.866505
2022-11-30T05:09:30.495Z,50.866692
2022-11-30T05:10:30.482Z,50.866528
2022-11-30T05:11:30.472Z,50.866749
2022-11-30T05:12:30.519Z,50.866783
2022-11-30T05:13:30.446Z,50.866669
2022-11-30T05:14:30.440Z,50.866577
2022-11-30T05:15:30.430Z,50.866684
2022-11-30T05:16:31.463Z,50.866669
2022-11-30T05:17:30.428Z,50.866714
2022-11-30T05:18:30.409Z,50.866676
2022-11-30T05:19:30.411Z,50.866497
2022-11-30T05:20:30.396Z,50.866661
2022-11-30T05:21:30.385Z,50.866695
2022-11-30T05:22:30.376Z,50.866699
2022-11-30T05:23:30.369Z,50.866871
2022-11-30T05:24:30.357Z,50.866776
2022-11-30T05:25:30.356Z,50.866871
2022-11-30T05:26:30.348Z,50.866661
2022-11-30T05:27:30.343Z,50.866734
2022-11-30T05:28:30.336Z,50.866741
2022-11-30T05:29:30.343Z,50.866238
2022-11-30T05:30:30.320Z,50.866550
2022-11-30T05:31:30.385Z,50.866619
2022-11-30T05:32:30.297Z,50.866692
2022-11-30T05:33:30.288Z,50.866554
2022-11-30T05:34:30.284Z,50.866692
2022-11-30T05:35:30.307Z,50.866985
2022-11-30T05:36:30.283Z,50.866840
2022-11-30T05:37:30.258Z,50.866676
2022-11-30T05:38:30.265Z,50.866844
2022-11-30T05:39:30.242Z,50.866814
2022-11-30T05:40:30.255Z,50.866825
2022-11-30T05:41:30.232Z,50.867111
2022-11-30T05:42:30.223Z,50.867119
2022-11-30T05:43:30.219Z,50.867172
2022-11-30T05:44:30.734Z,50.866856
2022-11-30T05:45:30.203Z,50.866798
2022-11-30T05:46:30.226Z,50.866810
2022-11-30T05:47:30.184Z,50.866665
2022-11-30T05:48:30.198Z,50.866604
2022-11-30T05:49:30.240Z,50.866631
2022-11-30T05:50:30.189Z,50.866684
2022-11-30T05:51:30.168Z,50.866741
2022-11-30T05:52:30.157Z,50.866653
2022-11-30T05:53:30.131Z,50.866673
2022-11-30T05:54:44.894Z,50.866734
2022-11-30T05:55:30.126Z,50.866573
2022-11-30T05:56:30.123Z,50.866577
2022-11-30T05:57:30.103Z,50.866650
2022-11-30T05:58:30.086Z,50.866787
2022-11-30T05:59:30.073Z,50.866703
2022-11-30T06:00:30.078Z,50.866859
2022-11-30T06:01:30.071Z,50.866776
2022-11-30T06:02:30.269Z,50.866947
2022-11-30T06:03:30.745Z,50.866993
2022-11-30T06:04:31.049Z,50.866978
2022-11-30T06:05:30.028Z,50.867062
2022-11-30T06:06:30.049Z,50.867260
2022-11-30T06:07:30.147Z,50.867264
2022-11-30T06:08:30.680Z,50.866989
2022-11-30T06:09:30.755Z,50.866787
2022-11-30T06:10:30.015Z,50.866776
2022-11-30T06:11:30.017Z,50.866623
2022-11-30T06:12:30.013Z,50.866390
2022-11-30T06:13:29.966Z,50.866272
2022-11-30T06:14:29.974Z,50.866665
2022-11-30T06:15:29.954Z,50.866802
2022-11-30T06:16:30.024Z,50.866760
2022-11-30T06:17:29.948Z,50.866932
2022-11-30T06:18:29.943Z,50.867176
2022-11-30T06:19:29.929Z,50.867458
2022-11-30T06:20:29.921Z,50.866741
2022-11-30T06:21:29.908Z,50.866737
2022-11-30T06:22:29.905Z,50.866745
2022-11-30T06:23:29.905Z,50.866730
2022-11-30T06:24:29.916Z,50.866764
2022-11-30T06:25:29.887Z,50.866726
2022-11-30T06:26:29.872Z,50.866699
2022-11-30T06:27:29.883Z,50.866611
2022-11-30T06:28:29.882Z,50.866600
2022-11-30T06:29:29.857Z,50.866638
2022-11-30T06:30:29.837Z,50.866714
2022-11-30T06:31:29.871Z,50.866791
2022-11-30T06:32:29.821Z,50.866772
2022-11-30T06:33:29.831Z,50.866852
2022-11-30T06:34:29.812Z,50.866970
2022-11-30T06:35:29.805Z,50.866852
2022-11-30T06:36:35.482Z,50.866787
2022-11-30T06:37:32.655Z,50.866756
2022-11-30T06:38:29.776Z,50.866951
2022-11-30T06:44:38.497Z,50.866528
2022-11-30T06:45:40.085Z,50.866455
2022-11-30T06:46:38.240Z,50.866745
2022-11-30T06:47:39.050Z,50.866550
2022-11-30T06:48:38.164Z,50.866493
2022-11-30T06:49:38.152Z,50.866543
2022-11-30T06:50:38.151Z,50.866524
2022-11-30T06:51:38.986Z,50.866596
2022-11-30T06:52:38.987Z,50.867023
2022-11-30T06:53:38.126Z,50.866745
2022-11-30T06:54:38.122Z,50.866592
2022-11-30T06:55:38.110Z,50.866516
2022-11-30T06:56:38.147Z,50.866402
2022-11-30T06:57:38.094Z,50.866535
2022-11-30T06:58:38.088Z,50.866516
2022-11-30T06:59:38.999Z,50.866619
2022-11-30T07:00:39.111Z,50.866634
2022-11-30T07:01:38.064Z,50.866669
2022-11-30T07:02:38.067Z,50.866711
2022-11-30T07:03:38.051Z,50.866646
2022-11-30T07:04:38.039Z,50.866638
2022-11-30T07:05:38.569Z,50.866730
2022-11-30T07:06:38.027Z,50.866714
2022-11-30T07:07:38.585Z,50.866627
2022-11-30T07:08:38.084Z,50.866795
2022-11-30T07:09:38.567Z,50.866890
2022-11-30T07:10:37.989Z,50.866772
2022-11-30T07:11:37.987Z,50.866779
2022-11-30T07:12:39.488Z,50.866745
2022-11-30T07:13:38.606Z,50.866718
2022-11-30T07:14:37.961Z,50.866737
2022-11-30T07:15:37.964Z,50.866745
2022-11-30T07:17:11.039Z,50.866875
2022-11-30T07:17:37.958Z,50.866932
2022-11-30T07:18:38.596Z,50.867020
2022-11-30T07:19:38.524Z,50.867016
2022-11-30T07:20:37.960Z,50.866940
2022-11-30T07:21:39.531Z,50.866905
2022-11-30T07:22:37.900Z,50.866871
2022-11-30T07:23:37.901Z,50.866882
2022-11-30T07:24:37.896Z,50.866917
2022-11-30T07:25:37.875Z,50.866867
2022-11-30T07:26:37.870Z,50.866882
2022-11-30T07:27:37.862Z,50.866798
2022-11-30T07:28:37.871Z,50.866753
2022-11-30T07:29:37.890Z,50.866837
2022-11-30T07:30:37.845Z,50.866905
2022-11-30T07:31:37.887Z,50.866909
2022-11-30T07:32:37.999Z,50.866951
2022-11-30T07:33:37.832Z,50.866920
2022-11-30T07:34:38.896Z,50.866901
2022-11-30T07:35:37.812Z,50.866901
2022-11-30T07:36:37.807Z,50.866905
2022-11-30T07:37:39.525Z,50.866852
2022-11-30T07:38:37.788Z,50.866833
2022-11-30T07:39:37.770Z,50.866856
2022-11-30T07:40:37.758Z,50.866890
2022-11-30T07:41:37.765Z,50.866867
2022-11-30T07:42:37.757Z,50.866875
2022-11-30T07:43:37.749Z,50.866955
2022-11-30T07:44:38.615Z,50.867001
2022-11-30T07:45:37.747Z,50.866970
2022-11-30T07:46:37.726Z,50.866905
2022-11-30T07:47:38.527Z,50.866856
2022-11-30T07:48:37.712Z,50.866806
2022-11-30T07:49:38.690Z,50.866825
2022-11-30T07:50:37.691Z,50.866776
2022-11-30T07:51:37.683Z,50.866833
2022-11-30T07:52:37.672Z,50.866814
2022-11-30T07:53:37.689Z,50.866810
2022-11-30T07:54:37.650Z,50.866787
2022-11-30T07:55:37.645Z,50.866840
2022-11-30T07:56:37.665Z,50.866871
2022-11-30T07:57:37.645Z,50.866924
2022-11-30T07:58:37.629Z,50.866875
2022-11-30T07:59:37.609Z,50.866837
2022-11-30T08:00:37.611Z,50.866821
2022-11-30T08:01:37.763Z,50.866821
2022-11-30T08:02:39.134Z,50.866783
2022-11-30T08:03:37.697Z,50.866753
2022-11-30T08:04:37.673Z,50.866764
2022-11-30T08:05:37.566Z,50.866737
2022-11-30T08:06:38.544Z,50.866753
2022-11-30T08:07:37.649Z,50.866734
2022-11-30T08:08:38.533Z,50.866734
2022-11-30T08:09:37.553Z,50.866680
2022-11-30T08:10:37.539Z,50.866673
2022-11-30T08:11:37.547Z,50.866718
2022-11-30T08:15:45.593Z,50.866714
2022-11-30T08:16:44.665Z,50.866695
2022-11-30T08:17:44.571Z,50.866734
2022-11-30T08:18:44.553Z,50.866688
2022-11-30T08:19:44.550Z,50.866673
2022-11-30T08:20:49.866Z,50.866680
2022-11-30T08:21:46.538Z,50.866726
2022-11-30T08:22:44.527Z,50.866692
2022-11-30T08:23:44.560Z,50.866711
2022-11-30T08:24:44.506Z,50.866734
2022-11-30T08:25:44.483Z,50.866695
2022-11-30T08:26:44.556Z,50.866711
2022-11-30T08:27:46.121Z,50.866753
2022-11-30T08:28:44.477Z,50.866741
2022-11-30T08:29:44.474Z,50.866718
2022-11-30T08:30:44.489Z,50.866749
2022-11-30T08:31:44.453Z,50.866776
2022-11-30T08:32:44.493Z,50.866772
2022-11-30T08:33:44.430Z,50.866726
2022-11-30T08:34:44.506Z,50.866730
2022-11-30T08:35:44.410Z,50.866810
2022-11-30T08:36:48.796Z,50.866798
2022-11-30T08:37:46.407Z,50.866783
2022-11-30T08:38:44.402Z,50.866753
2022-11-30T08:39:44.421Z,50.866795
2022-11-30T08:40:44.374Z,50.866734
2022-11-30T08:41:44.366Z,50.866714
2022-11-30T08:42:44.351Z,50.866753
2022-11-30T08:43:44.370Z,50.866741
2022-11-30T08:44:44.372Z,50.866745
2022-11-30T08:45:44.376Z,50.866734
2022-11-30T08:46:52.376Z,50.866753
2022-11-30T08:47:46.318Z,50.866806
2022-11-30T08:48:45.192Z,50.866756
2022-11-30T08:49:44.298Z,50.866734
2022-11-30T08:50:44.286Z,50.866676
2022-11-30T08:52:15.418Z,50.866611
2022-11-30T08:52:46.265Z,50.866596
2022-11-30T08:53:44.301Z,50.866592
2022-11-30T08:54:46.231Z,50.866642
2022-11-30T08:55:44.240Z,50.866650
2022-11-30T08:56:44.238Z,50.866631
2022-11-30T08:57:44.227Z,50.866699
2022-11-30T08:58:44.223Z,50.866711
2022-11-30T08:59:44.236Z,50.866745
2022-11-30T09:00:45.216Z,50.866722
2022-11-30T09:01:45.177Z,50.866673
2022-11-30T09:02:44.212Z,50.866688
2022-11-30T09:03:44.177Z,50.866703
2022-11-30T09:04:44.192Z,50.866711
2022-11-30T09:05:44.165Z,50.866737
2022-11-30T09:06:44.159Z,50.866894
2022-11-30T09:07:44.153Z,50.867077
2022-11-30T09:08:44.156Z,50.867325
2022-11-30T09:09:44.748Z,50.867065
2022-11-30T09:10:48.762Z,50.867004
2022-11-30T09:11:44.120Z,50.866955
2022-11-30T09:12:44.774Z,50.866825
2022-11-30T09:13:44.098Z,50.866745
2022-11-30T09:14:44.098Z,50.866676
2022-11-30T09:15:44.142Z,50.866577
2022-11-30T09:16:44.079Z,50.866589
2022-11-30T09:17:44.265Z,50.866749
2022-11-30T09:18:45.674Z,50.866791
2022-11-30T09:19:44.072Z,50.866737
2022-11-30T09:20:44.060Z,50.866901
2022-11-30T09:21:49.759Z,50.867031
2022-11-30T09:22:46.046Z,50.866970
2022-11-30T09:23:44.008Z,50.866894
2022-11-30T09:24:45.830Z,50.866673
2022-11-30T09:25:44.023Z,50.866486
2022-11-30T09:26:44.768Z,50.866631
2022-11-30T09:27:44.676Z,50.866688
2022-11-30T09:28:44.683Z,50.866779
2022-11-30T09:29:43.981Z,50.866856
2022-11-30T09:30:43.992Z,50.866856
2022-11-30T09:31:43.957Z,50.866730
2022-11-30T09:32:43.954Z,50.866703
2022-11-30T09:33:43.938Z,50.866714
2022-11-30T09:34:43.931Z,50.866760
2022-11-30T09:35:43.923Z,50.866661
2022-11-30T09:36:43.921Z,50.866703
2022-11-30T09:37:43.911Z,50.866722
2022-11-30T09:38:44.270Z,50.866722
2022-11-30T09:39:43.904Z,50.866783
2022-11-30T09:40:43.883Z,50.866859
2022-11-30T09:41:43.880Z,50.866756
2022-11-30T09:42:43.873Z,50.866798
2022-11-30T09:43:43.869Z,50.866745
2022-11-30T09:44:43.860Z,50.866596
2022-11-30T09:45:43.868Z,50.866627
2022-11-30T09:46:43.832Z,50.866669
2022-11-30T09:47:43.823Z,50.866741
2022-11-30T09:48:43.822Z,50.866627
2022-11-30T09:49:43.806Z,50.866692
2022-11-30T09:50:43.826Z,50.866730
2022-11-30T09:51:43.791Z,50.866711
2022-11-30T09:52:43.787Z,50.866718
2022-11-30T09:53:43.794Z,50.866802
2022-11-30T09:54:43.768Z,50.866745
2022-11-30T09:55:43.782Z,50.866737
2022-11-30T09:56:44.265Z,50.866753
2022-11-30T09:57:43.777Z,50.866783
2022-11-30T09:58:43.737Z,50.866787
2022-11-30T09:59:43.725Z,50.866772
2022-11-30T10:00:43.731Z,50.866798
2022-11-30T10:01:46.080Z,50.866718
2022-11-30T10:02:44.845Z,50.866779
2022-11-30T10:03:43.787Z,50.866764
2022-11-30T10:19:52.035Z,50.866825
2022-11-30T10:20:52.025Z,50.866791
2022-11-30T10:21:52.924Z,50.866806
2022-11-30T10:22:52.054Z,50.866768
2022-11-30T10:23:52.015Z,50.866772
2022-11-30T10:24:51.991Z,50.866741
2022-11-30T10:25:52.010Z,50.866749
2022-11-30T10:26:52.987Z,50.866768
2022-11-30T10:27:52.027Z,50.866711
2022-11-30T10:28:52.930Z,50.866741
2022-11-30T10:29:51.939Z,50.866714
2022-11-30T10:30:52.958Z,50.866634
2022-11-30T10:31:51.936Z,50.866680
2022-11-30T10:32:52.419Z,50.866627
2022-11-30T10:33:51.909Z,50.866764
2022-11-30T10:34:51.937Z,50.866734
2022-11-30T10:35:51.917Z,50.866703
2022-11-30T10:36:51.923Z,50.866764
2022-11-30T10:37:51.881Z,50.866817
2022-11-30T10:38:51.867Z,50.866776
2022-11-30T10:39:51.863Z,50.866806
2022-11-30T10:40:51.867Z,50.866859
2022-11-30T10:41:51.840Z,50.866810
2022-11-30T10:42:52.418Z,50.866791
2022-11-30T10:43:51.841Z,50.866749
2022-11-30T10:44:51.828Z,50.866802
2022-11-30T10:45:51.885Z,50.866882
2022-11-30T10:46:51.830Z,50.866875
2022-11-30T10:47:51.812Z,50.866711
2022-11-30T10:48:51.878Z,50.866802
2022-11-30T10:49:52.505Z,50.866776
2022-11-30T10:50:52.419Z,50.866764
2022-11-30T10:51:51.767Z,50.866756
2022-11-30T10:52:51.774Z,50.866730
2022-11-30T10:53:51.762Z,50.866726
2022-11-30T10:54:51.745Z,50.866791
2022-11-30T10:55:51.735Z,50.866783
2022-11-30T10:56:53.434Z,50.866776
2022-11-30T10:57:51.728Z,50.866764
2022-11-30T10:58:51.710Z,50.866749
2022-11-30T10:59:51.702Z,50.866749
2022-11-30T11:00:51.691Z,50.866772
2022-11-30T11:01:51.818Z,50.866821
2022-11-30T11:02:52.068Z,50.866852
2022-11-30T11:03:53.491Z,50.866913
2022-11-30T11:04:51.660Z,50.866879
2022-11-30T11:05:52.467Z,50.866840
2022-11-30T11:06:51.839Z,50.866779
2022-11-30T11:07:53.558Z,50.866951
2022-11-30T11:08:53.519Z,50.866909
2022-11-30T11:09:52.427Z,50.866867
2022-11-30T11:10:51.680Z,50.866882
2022-11-30T11:11:53.383Z,50.866867
2022-11-30T11:12:51.602Z,50.866886
2022-11-30T11:13:51.592Z,50.866936
2022-11-30T11:14:51.587Z,50.866905
2022-11-30T11:15:51.702Z,50.866852
2022-11-30T11:16:51.576Z,50.866810
2022-11-30T11:17:51.558Z,50.866802
2022-11-30T11:18:52.570Z,50.866814
2022-11-30T11:19:51.552Z,50.866844
2022-11-30T11:20:55.560Z,50.866787
2022-11-30T11:21:52.531Z,50.866776
2022-11-30T11:22:51.517Z,50.866802
2022-11-30T11:23:51.511Z,50.866802
2022-11-30T11:24:51.494Z,50.866787
2022-11-30T11:25:53.427Z,50.866798
2022-11-30T11:26:51.484Z,50.866791
2022-11-30T11:27:51.492Z,50.866791
2022-11-30T11:28:51.457Z,50.866741
2022-11-30T11:29:51.461Z,50.866867
2022-11-30T11:30:52.444Z,50.866821
2022-11-30T11:31:51.439Z,50.866737
2022-11-30T11:32:51.538Z,50.866756
2022-11-30T11:33:51.429Z,50.866787
2022-11-30T11:34:51.747Z,50.866772
2022-11-30T11:35:51.428Z,50.866756
2022-11-30T11:36:51.417Z,50.866772
2022-11-30T11:37:51.384Z,50.866791
2022-11-30T11:38:52.376Z,50.866772
2022-11-30T11:39:51.383Z,50.866821
2022-11-30T11:40:53.927Z,50.866779
2022-11-30T11:41:51.928Z,50.866905
2022-11-30T11:42:51.391Z,50.866886
2022-11-30T11:43:51.334Z,50.867031
2022-11-30T11:44:51.342Z,50.867012
2022-11-30T11:45:51.324Z,50.866871
2022-11-30T11:46:53.025Z,50.866810
2022-11-30T11:47:51.933Z,50.866787
2022-11-30T11:48:51.313Z,50.866905
2022-11-30T11:49:51.321Z,50.867130
2022-11-30T11:51:06.576Z,50.867016
2022-11-30T11:51:53.282Z,50.867004
2022-11-30T11:52:51.290Z,50.867115
2022-11-30T11:53:53.529Z,50.867138
2022-11-30T11:54:53.022Z,50.867134
2022-11-30T11:55:51.300Z,50.867321
2022-11-30T11:56:51.938Z,50.866795
2022-11-30T11:57:52.226Z,50.867371
2022-11-30T11:58:52.939Z,50.867432
2022-11-30T11:59:52.051Z,50.867268
2022-11-30T12:01:05.779Z,50.866810
2022-11-30T12:01:52.215Z,50.866795
2022-11-30T12:02:51.967Z,50.866707
2022-11-30T12:03:52.956Z,50.866901
2022-11-30T12:04:52.941Z,50.866657
2022-11-30T12:05:51.168Z,50.866707
2022-11-30T12:06:51.152Z,50.866764
2022-11-30T12:07:51.164Z,50.866787
2022-11-30T12:08:52.316Z,50.866760
2022-11-30T12:09:51.141Z,50.866699
2022-11-30T12:10:53.512Z,50.866550
2022-11-30T12:11:55.932Z,50.866634
2022-11-30T12:12:54.986Z,50.866726
2022-11-30T21:35:25.578Z,50.866867